This is the latest recevied weather packets stored in our database for station/object KF7SOJ. If no packets are shown the sender has not sent any weather packets the latest 10 day(s).
| Time | Temp. | Humidity | Pressure | Rain* | Wind** | Luminosity | Snow |
|---|---|---|---|---|---|---|---|
| 1788006888 | 20.56° C | 52% | 929.3 hPa | 0 mm | - | 2 W/m² | - |
| 1788006587 | 21.11° C | 50% | 929.4 hPa | 0 mm | - | 1 W/m² | - |
| 1788006283 | 20.56° C | 50% | 929.3 hPa | 0 mm | - | 1 W/m² | - |
| 1788005981 | 20.56° C | 52% | 929.2 hPa | 0 mm | - | 0 W/m² | - |
| 1788005676 | 20.56° C | 54% | 929.2 hPa | 0 mm | - | 0 W/m² | - |
| 1788005376 | 20° C | 58% | 929.2 hPa | 0 mm | - | 0 W/m² | - |
| 1788005075 | 19.44° C | 60% | 929.2 hPa | 0 mm | - | 0 W/m² | - |
| 1788004773 | 19.44° C | 61% | 929.2 hPa | 0 mm | - | 0 W/m² | - |
| 1788004468 | 19.44° C | 62% | 929.2 hPa | 0 mm | - | 0 W/m² | - |
| 1788004168 | 20° C | 62% | 929 hPa | 0 mm | - | 0 W/m² | - |
| 1788003866 | 19.44° C | 63% | 929.3 hPa | 0 mm | - | 0 W/m² | - |
| 1788003561 | 19.44° C | 64% | 929.2 hPa | 0 mm | - | 0 W/m² | - |
| 1788003256 | 18.89° C | 65% | 929.3 hPa | 0 mm | - | 0 W/m² | - |
| 1788002956 | 18.89° C | 66% | 929.4 hPa | 0 mm | - | 0 W/m² | - |
| 1788002651 | 18.89° C | 66% | 929.3 hPa | 0 mm | - | 0 W/m² | - |
| 1788002347 | 18.89° C | 66% | 929.3 hPa | 0 mm | - | 0 W/m² | - |
| 1788002041 | 18.89° C | 66% | 929.2 hPa | 0 mm | - | 0 W/m² | - |
| 1788001741 | 18.89° C | 66% | 929.1 hPa | 0 mm | - | 0 W/m² | - |
| 1788001436 | 18.89° C | 66% | 929.5 hPa | 0 mm | - | 0 W/m² | - |
| 1788001131 | 18.33° C | 68% | 929.4 hPa | 0 mm | - | 0 W/m² | - |
| 1788000827 | 17.22° C | 71% | 929.3 hPa | 0 mm | - | 0 W/m² | - |
| 1788000527 | 17.22° C | 71% | 929.5 hPa | 0 mm | - | 0 W/m² | - |
| 1788000227 | 17.22° C | 71% | 929.4 hPa | 0 mm | - | 0 W/m² | - |
| 1787999922 | 18.33° C | 68% | 929.3 hPa | 0 mm | - | 0 W/m² | - |
| 1787999619 | 18.89° C | 66% | 929.3 hPa | 0 mm | - | 0 W/m² | - |
* Rain latest hour (hover to see other rain measurements)
** Current wind speed in m/s (hover to see current wind gust speed)